createdAt,value
2024-05-09T00:00:18.225Z,100826.47
2024-05-09T00:00:53.891Z,100821.00
2024-05-09T00:01:25.482Z,100806.06
2024-05-09T00:01:56.971Z,100812.00
2024-05-09T00:02:28.563Z,100821.25
2024-05-09T00:03:00.108Z,100822.16
2024-05-09T00:03:31.592Z,100818.16
2024-05-09T00:04:03.388Z,100818.41
2024-05-09T00:04:34.976Z,100827.44
2024-05-09T00:05:09.209Z,100816.97
2024-05-09T00:05:41.822Z,100825.84
2024-05-09T00:06:13.512Z,100819.22
2024-05-09T00:06:44.937Z,100823.75
2024-05-09T00:07:16.308Z,100821.66
2024-05-09T00:07:47.730Z,100820.81
2024-05-09T00:08:19.230Z,100819.72
2024-05-09T00:08:50.652Z,100819.72
2024-05-09T00:09:22.036Z,100822.78
2024-05-09T00:09:53.118Z,100812.34
2024-05-09T00:10:33.192Z,100824.16
2024-05-09T00:11:08.251Z,100825.31
2024-05-09T00:11:39.756Z,100826.66
2024-05-09T00:12:11.311Z,100821.00
2024-05-09T00:12:42.709Z,100823.41
2024-05-09T00:13:14.092Z,100818.88
2024-05-09T00:13:46.218Z,100826.97
2024-05-09T00:14:17.728Z,100826.22
2024-05-09T00:14:49.099Z,100817.19
2024-05-09T00:15:20.502Z,100825.25
2024-05-09T00:15:51.919Z,100825.78
2024-05-09T00:16:23.285Z,100817.19
2024-05-09T00:16:55.142Z,100822.66
2024-05-09T00:17:26.803Z,100819.47
2024-05-09T00:17:58.269Z,100820.91
2024-05-09T00:18:32.212Z,100810.94
2024-05-09T00:19:03.818Z,100812.03
2024-05-09T00:19:35.362Z,100813.91
2024-05-09T00:20:14.130Z,100810.66
2024-05-09T00:20:51.790Z,100813.09
2024-05-09T00:21:23.277Z,100810.81
2024-05-09T00:21:54.802Z,100814.97
2024-05-09T00:22:26.154Z,100813.09
2024-05-09T00:22:57.568Z,100808.53
2024-05-09T00:23:29.119Z,100811.78
2024-05-09T00:24:00.362Z,100811.63
2024-05-09T00:24:31.784Z,100812.81
2024-05-09T00:25:03.269Z,100812.94
2024-05-09T00:25:35.043Z,100806.50
2024-05-09T00:26:06.805Z,100807.00
2024-05-09T00:26:38.248Z,100811.78
2024-05-09T00:27:12.684Z,100804.78
2024-05-09T00:27:44.597Z,100803.75
2024-05-09T00:28:15.944Z,100810.56
2024-05-09T00:28:47.385Z,100811.97
2024-05-09T00:29:18.846Z,100809.38
2024-05-09T00:29:50.247Z,100810.09
2024-05-09T00:30:31.031Z,100810.97
2024-05-09T00:31:05.762Z,100814.16
2024-05-09T00:31:37.158Z,100808.78
2024-05-09T00:32:08.751Z,100807.34
2024-05-09T00:32:40.308Z,100809.25
2024-05-09T00:33:12.161Z,100810.75
2024-05-09T00:33:43.871Z,100785.00
2024-05-09T00:34:15.431Z,100808.44
2024-05-09T00:34:46.959Z,100807.28
2024-05-09T00:35:18.394Z,100806.47
2024-05-09T00:35:49.873Z,100805.63
2024-05-09T00:36:21.294Z,100806.47
2024-05-09T00:36:52.682Z,100811.09
2024-05-09T00:37:24.108Z,100807.88
2024-05-09T00:37:55.588Z,100803.75
2024-05-09T00:38:26.727Z,100805.72
2024-05-09T00:38:58.124Z,100810.84
2024-05-09T00:39:29.452Z,100806.00
2024-05-09T00:40:00.805Z,100810.41
2024-05-09T00:40:39.440Z,100806.31
2024-05-09T00:41:15.156Z,100808.50
2024-05-09T00:41:47.685Z,100811.78
2024-05-09T00:42:19.071Z,100807.13
2024-05-09T00:42:50.441Z,100807.81
2024-05-09T00:43:21.801Z,100814.34
2024-05-09T00:43:53.225Z,100812.81
2024-05-09T00:44:24.730Z,100807.19
2024-05-09T00:44:56.226Z,100807.00
2024-05-09T00:45:27.578Z,100810.69
2024-05-09T00:46:00.887Z,100812.13
2024-05-09T00:46:32.275Z,100811.53
2024-05-09T00:47:04.040Z,100811.78
2024-05-09T00:47:35.872Z,100807.81
2024-05-09T00:48:09.734Z,100807.00
2024-05-09T00:48:42.139Z,100811.31
2024-05-09T00:49:13.824Z,100815.09
2024-05-09T00:49:45.396Z,100818.88
2024-05-09T00:50:22.945Z,100807.75
2024-05-09T00:51:02.119Z,100812.81
2024-05-09T00:51:33.634Z,100814.84
2024-05-09T00:52:05.919Z,100809.69
2024-05-09T00:52:37.708Z,100814.16
2024-05-09T00:53:13.724Z,100812.66
2024-05-09T00:53:45.023Z,100804.38
2024-05-09T00:54:18.703Z,100810.53
2024-05-09T00:54:50.061Z,100815.25
2024-05-09T00:55:22.798Z,100804.16
2024-05-09T00:55:55.646Z,100814.50
2024-05-09T00:56:27.337Z,100813.56
2024-05-09T00:57:00.986Z,100811.06
2024-05-09T00:57:32.436Z,100810.47
2024-05-09T00:58:04.450Z,100809.38
2024-05-09T00:58:35.887Z,100808.28
2024-05-09T00:59:07.662Z,100814.66
2024-05-09T00:59:39.699Z,100812.97
2024-05-09T01:00:22.389Z,100813.28
2024-05-09T01:01:01.947Z,100813.88
2024-05-09T01:01:34.002Z,100814.78
2024-05-09T01:02:05.847Z,100816.84
2024-05-09T01:02:38.221Z,100811.97
2024-05-09T01:03:11.865Z,100810.38
2024-05-09T01:03:46.635Z,100815.69
2024-05-09T01:04:19.623Z,100806.28
2024-05-09T01:04:52.184Z,100803.75
2024-05-09T01:05:23.652Z,100810.16
2024-05-09T01:05:55.129Z,100797.28
2024-05-09T01:06:26.619Z,100809.03
2024-05-09T01:06:58.041Z,100778.69
2024-05-09T01:07:29.504Z,100801.59
2024-05-09T01:08:00.874Z,100803.88
2024-05-09T01:08:32.498Z,100808.44
2024-05-09T01:09:03.954Z,100801.06
2024-05-09T01:09:35.287Z,100808.28
2024-05-09T01:10:11.760Z,100799.53
2024-05-09T01:10:49.072Z,100804.31
2024-05-09T01:11:20.580Z,100805.84
2024-05-09T01:11:52.070Z,100807.53
2024-05-09T01:12:23.842Z,100807.72
2024-05-09T01:12:55.302Z,100801.44
2024-05-09T01:13:26.667Z,100800.69
2024-05-09T01:13:58.081Z,100805.16
2024-05-09T01:14:29.598Z,100803.50
2024-05-09T01:15:01.107Z,100807.81
2024-05-09T01:15:33.496Z,100815.25
2024-05-09T01:16:05.033Z,100811.63
2024-05-09T01:16:36.737Z,100807.06
2024-05-09T01:17:08.245Z,100807.44
2024-05-09T01:17:40.189Z,100813.72
2024-05-09T01:18:13.283Z,100809.25
2024-05-09T01:18:45.437Z,100811.53
2024-05-09T01:19:25.659Z,100809.34
2024-05-09T01:19:57.158Z,100812.69
2024-05-09T01:20:37.539Z,100815.19
2024-05-09T01:21:13.480Z,100793.47
2024-05-09T01:21:44.697Z,100812.06
2024-05-09T01:22:16.094Z,100815.56
2024-05-09T01:22:47.723Z,100813.25
2024-05-09T01:23:19.180Z,100812.31
2024-05-09T01:23:50.585Z,100811.09
2024-05-09T01:24:21.953Z,100807.75
2024-05-09T01:24:53.364Z,100812.81
2024-05-09T01:25:24.703Z,100808.63
2024-05-09T01:25:56.121Z,100806.59
2024-05-09T01:26:27.622Z,100806.25
2024-05-09T01:26:59.054Z,100808.41
2024-05-09T01:27:30.560Z,100802.56
2024-05-09T01:28:01.901Z,100810.47
2024-05-09T01:28:33.240Z,100807.28
2024-05-09T01:29:04.688Z,100808.84
2024-05-09T01:29:36.167Z,100814.38
2024-05-09T01:30:09.677Z,100813.06
2024-05-09T01:30:45.838Z,100811.38
2024-05-09T01:31:17.234Z,100812.22
2024-05-09T01:31:50.592Z,100811.09
2024-05-09T01:32:22.360Z,100819.16
2024-05-09T01:32:54.055Z,100813.69
2024-05-09T01:33:25.995Z,100817.84
2024-05-09T01:33:57.652Z,100809.38
2024-05-09T01:34:29.079Z,100818.72
2024-05-09T01:35:00.517Z,100813.25
2024-05-09T01:35:32.059Z,100817.19
2024-05-09T01:36:03.546Z,100810.97
2024-05-09T01:36:34.974Z,100809.03
2024-05-09T01:37:06.370Z,100814.09
2024-05-09T01:37:39.245Z,100811.84
2024-05-09T01:38:11.992Z,100810.16
2024-05-09T01:38:43.413Z,100814.09
2024-05-09T01:39:14.914Z,100813.50
2024-05-09T01:39:46.257Z,100810.31
2024-05-09T01:40:22.134Z,100813.56
2024-05-09T01:40:56.862Z,100809.44
2024-05-09T01:41:28.403Z,100815.16
2024-05-09T01:41:59.971Z,100810.28
2024-05-09T01:42:31.331Z,100809.25
2024-05-09T01:43:02.702Z,100808.34
2024-05-09T01:43:34.038Z,100811.16
2024-05-09T01:44:05.451Z,100813.34
2024-05-09T01:44:36.986Z,100813.88
2024-05-09T01:45:08.798Z,100813.13
2024-05-09T01:45:40.631Z,100808.34
2024-05-09T01:46:14.189Z,100812.13
2024-05-09T01:46:45.643Z,100811.31
2024-05-09T01:47:17.224Z,100809.19
2024-05-09T01:47:48.844Z,100814.41
2024-05-09T01:48:20.482Z,100810.91
2024-05-09T01:48:52.093Z,100818.59
2024-05-09T01:49:23.548Z,100811.78
2024-05-09T01:49:54.903Z,100810.94
2024-05-09T01:50:37.144Z,100813.66
2024-05-09T01:51:12.156Z,100809.34
2024-05-09T01:51:43.703Z,100809.56
2024-05-09T01:52:15.078Z,100811.69
2024-05-09T01:52:46.530Z,100814.09
2024-05-09T01:53:17.760Z,100812.81
2024-05-09T01:53:49.032Z,100812.06
2024-05-09T01:54:20.169Z,100804.91
2024-05-09T01:54:51.613Z,100811.81
2024-05-09T01:55:23.020Z,100811.47
2024-05-09T01:55:54.378Z,100805.16
2024-05-09T01:56:25.532Z,100808.72
2024-05-09T01:56:56.895Z,100813.50
2024-05-09T01:57:28.315Z,100807.97
2024-05-09T01:57:59.693Z,100808.56
2024-05-09T01:58:31.030Z,100807.72
2024-05-09T01:59:02.518Z,100804.22
2024-05-09T01:59:33.981Z,100807.81
2024-05-09T02:00:07.650Z,100820.00
2024-05-09T02:00:41.942Z,100800.91
2024-05-09T02:01:14.331Z,100809.69
2024-05-09T02:01:56.436Z,100803.44
2024-05-09T02:02:29.288Z,100809.56
2024-05-09T02:03:01.013Z,100811.75
2024-05-09T02:03:32.742Z,100808.72
2024-05-09T02:04:04.656Z,100806.75
2024-05-09T02:04:36.266Z,100803.63
2024-05-09T02:05:07.870Z,100810.09
2024-05-09T02:05:39.484Z,100808.03
2024-05-09T02:06:11.263Z,100808.97
2024-05-09T02:06:42.926Z,100801.59
2024-05-09T02:07:14.612Z,100805.31
2024-05-09T02:07:45.962Z,100774.38
2024-05-09T02:08:19.460Z,100803.19
2024-05-09T02:08:51.144Z,100808.72
2024-05-09T02:09:22.613Z,100808.03
2024-05-09T02:09:53.937Z,100804.84
2024-05-09T02:10:32.049Z,100810.56
2024-05-09T02:11:04.661Z,100805.91
2024-05-09T02:11:43.102Z,100807.66
2024-05-09T02:12:14.693Z,100804.69
2024-05-09T02:12:46.230Z,100808.50
2024-05-09T02:13:17.653Z,100811.44
2024-05-09T02:13:49.058Z,100800.38
2024-05-09T02:14:20.472Z,100803.13
2024-05-09T02:14:52.060Z,100807.34
2024-05-09T02:15:23.213Z,100805.53
2024-05-09T02:15:55.201Z,100802.28
2024-05-09T02:16:26.599Z,100803.59
2024-05-09T02:16:58.100Z,100805.38
2024-05-09T02:17:29.622Z,100797.34
2024-05-09T02:18:01.439Z,100800.38
2024-05-09T02:18:32.706Z,100800.16
2024-05-09T02:19:05.183Z,100802.22
2024-05-09T02:19:36.674Z,100801.59
2024-05-09T02:20:10.719Z,100802.66
2024-05-09T02:20:44.944Z,100805.41
2024-05-09T02:21:16.409Z,100804.47
2024-05-09T02:21:47.781Z,100803.34
2024-05-09T02:22:19.163Z,100799.56
2024-05-09T02:22:50.624Z,100801.44
2024-05-09T02:23:22.051Z,100803.75
2024-05-09T02:23:53.522Z,100802.97
2024-05-09T02:24:24.913Z,100805.56
2024-05-09T02:24:56.288Z,100807.44
2024-05-09T02:25:27.667Z,100799.63
2024-05-09T02:25:59.128Z,100799.94
2024-05-09T02:26:30.350Z,100807.38
2024-05-09T02:27:01.755Z,100805.75
2024-05-09T02:27:32.934Z,100799.53
2024-05-09T02:28:04.668Z,100808.31
2024-05-09T02:28:35.802Z,100801.22
2024-05-09T02:29:07.204Z,100804.63
2024-05-09T02:29:38.644Z,100800.63
2024-05-09T02:30:18.619Z,100798.34
2024-05-09T02:30:57.351Z,100798.34
2024-05-09T02:31:28.767Z,100803.03
2024-05-09T02:32:00.290Z,100800.75
2024-05-09T02:32:31.970Z,100802.66
2024-05-09T02:33:03.706Z,100805.44
2024-05-09T02:33:35.364Z,100806.84
2024-05-09T02:34:06.945Z,100810.16
2024-05-09T02:34:38.550Z,100805.59
2024-05-09T02:35:10.236Z,100809.50
2024-05-09T02:35:42.791Z,100805.53
2024-05-09T02:36:14.898Z,100805.25
2024-05-09T02:36:46.073Z,100804.63
2024-05-09T02:37:17.462Z,100809.66
2024-05-09T02:37:48.620Z,100807.13
2024-05-09T02:38:20.156Z,100802.25
2024-05-09T02:38:51.618Z,100807.97
2024-05-09T02:39:22.994Z,100809.47
2024-05-09T02:39:54.415Z,100805.56
2024-05-09T02:40:33.743Z,100802.41
2024-05-09T02:41:08.981Z,100810.13
2024-05-09T02:41:40.120Z,100816.41
2024-05-09T02:42:11.616Z,100803.69
2024-05-09T02:42:42.739Z,100810.66
2024-05-09T02:43:13.851Z,100805.22
2024-05-09T02:43:45.257Z,100808.94
2024-05-09T02:44:16.637Z,100808.47
2024-05-09T02:44:48.000Z,100815.03
2024-05-09T02:45:19.389Z,100799.31
2024-05-09T02:45:50.773Z,100808.03
2024-05-09T02:46:21.896Z,100811.53
2024-05-09T02:46:53.256Z,100807.13
2024-05-09T02:47:24.846Z,100808.56
2024-05-09T02:47:56.249Z,100809.38
2024-05-09T02:48:27.920Z,100805.38
2024-05-09T02:48:59.428Z,100809.00
2024-05-09T02:49:30.920Z,100803.75
2024-05-09T02:50:02.397Z,100803.72
2024-05-09T02:50:38.392Z,100803.94
2024-05-09T02:51:11.624Z,100807.25
2024-05-09T02:51:43.058Z,100803.31
2024-05-09T02:52:16.980Z,100812.34
2024-05-09T02:52:48.139Z,100807.13
2024-05-09T02:53:19.550Z,100814.06
2024-05-09T02:53:50.982Z,100804.53
2024-05-09T02:54:22.364Z,100810.59
2024-05-09T02:54:53.499Z,100809.19
2024-05-09T02:55:24.603Z,100809.16
2024-05-09T02:55:56.021Z,100801.81
2024-05-09T02:56:27.555Z,100805.81
2024-05-09T02:56:58.951Z,100799.06
2024-05-09T02:57:30.288Z,100808.19
2024-05-09T02:58:01.661Z,100802.53
2024-05-09T02:58:33.124Z,100804.22
2024-05-09T02:59:04.630Z,100802.94
2024-05-09T02:59:36.034Z,100806.50
2024-05-09T03:00:15.022Z,100805.28
2024-05-09T03:00:50.204Z,100802.63
2024-05-09T03:01:21.607Z,100801.94
2024-05-09T03:01:53.019Z,100808.31
2024-05-09T03:02:25.915Z,100800.66
2024-05-09T03:02:57.559Z,100795.97
2024-05-09T03:03:29.267Z,100806.28
2024-05-09T03:04:00.778Z,100800.13
2024-05-09T03:04:32.428Z,100803.19
2024-05-09T03:05:04.191Z,100802.59
2024-05-09T03:05:35.810Z,100807.72
2024-05-09T03:06:07.205Z,100805.44
2024-05-09T03:06:42.256Z,100797.44
2024-05-09T03:07:13.668Z,100800.59
2024-05-09T03:07:45.072Z,100801.50
2024-05-09T03:08:16.532Z,100802.97
2024-05-09T03:08:48.025Z,100806.34
2024-05-09T03:09:20.440Z,100798.16
2024-05-09T03:09:51.858Z,100793.81
2024-05-09T03:10:28.357Z,100804.22
2024-05-09T03:11:00.434Z,100803.75
2024-05-09T03:11:31.934Z,100800.44
2024-05-09T03:12:03.679Z,100801.72
2024-05-09T03:12:37.873Z,100800.25
2024-05-09T03:13:12.548Z,100800.50
2024-05-09T03:13:45.054Z,100805.09
2024-05-09T03:14:18.415Z,100801.72
2024-05-09T03:14:49.767Z,100806.50
2024-05-09T03:15:21.651Z,100802.88
2024-05-09T03:15:53.044Z,100799.28
2024-05-09T03:16:24.620Z,100795.06
2024-05-09T03:16:55.869Z,100797.88
2024-05-09T03:17:27.481Z,100804.06
2024-05-09T03:17:59.956Z,100799.59
2024-05-09T03:18:31.602Z,100810.53
2024-05-09T03:19:03.129Z,100800.75
2024-05-09T03:19:35.615Z,100800.38
2024-05-09T03:20:17.019Z,100801.13
2024-05-09T03:20:52.025Z,100802.06
2024-05-09T03:21:23.432Z,100803.25
2024-05-09T03:21:54.813Z,100806.34
2024-05-09T03:22:26.990Z,100807.19
2024-05-09T03:22:58.395Z,100799.69
2024-05-09T03:23:29.567Z,100804.72
2024-05-09T03:24:00.687Z,100807.59
2024-05-09T03:24:32.061Z,100804.03
2024-05-09T03:25:03.829Z,100799.47
2024-05-09T03:25:35.179Z,100802.66
2024-05-09T03:26:14.000Z,100814.47
2024-05-09T03:26:45.928Z,100806.09
2024-05-09T03:27:17.367Z,100809.16
2024-05-09T03:27:48.754Z,100807.63
2024-05-09T03:28:20.090Z,100803.34
2024-05-09T03:28:51.520Z,100801.97
2024-05-09T03:29:22.972Z,100797.34
2024-05-09T03:29:54.383Z,100804.56
2024-05-09T03:30:36.024Z,100797.56
2024-05-09T03:31:12.478Z,100800.53
2024-05-09T03:31:44.096Z,100798.94
2024-05-09T03:32:15.414Z,100801.28
2024-05-09T03:32:47.096Z,100797.78
2024-05-09T03:33:20.132Z,100807.78
2024-05-09T03:33:52.506Z,100805.59
2024-05-09T03:34:24.068Z,100795.91
2024-05-09T03:34:55.496Z,100801.75
2024-05-09T03:35:26.943Z,100805.00
2024-05-09T03:35:58.392Z,100803.44
2024-05-09T03:36:29.772Z,100801.81
2024-05-09T03:37:00.917Z,100804.53
2024-05-09T03:37:32.287Z,100803.44
2024-05-09T03:38:03.949Z,100801.06
2024-05-09T03:38:39.074Z,100805.53
2024-05-09T03:39:10.923Z,100800.00
2024-05-09T03:39:42.312Z,100805.06
2024-05-09T03:40:20.725Z,100800.69
2024-05-09T03:40:55.243Z,100800.06
2024-05-09T03:41:26.725Z,100801.75
2024-05-09T03:41:58.224Z,100799.41
2024-05-09T03:42:29.556Z,100797.19
2024-05-09T03:43:00.646Z,100802.34
2024-05-09T03:43:32.038Z,100809.78
2024-05-09T03:44:03.951Z,100805.22
2024-05-09T03:44:35.393Z,100800.91
2024-05-09T03:45:07.156Z,100804.31
2024-05-09T03:45:38.592Z,100803.72
2024-05-09T03:46:09.965Z,100809.31
2024-05-09T03:46:41.305Z,100812.81
2024-05-09T03:47:12.472Z,100810.13
2024-05-09T03:47:44.111Z,100815.06
2024-05-09T03:48:16.120Z,100806.84
2024-05-09T03:48:47.729Z,100810.16
2024-05-09T03:49:19.518Z,100810.09
2024-05-09T03:49:51.026Z,100808.34
2024-05-09T03:50:29.822Z,100811.28
2024-05-09T03:51:06.065Z,100811.63
2024-05-09T03:51:37.394Z,100807.69
2024-05-09T03:52:08.754Z,100809.59
2024-05-09T03:52:40.120Z,100811.03
2024-05-09T03:53:13.133Z,100807.47
2024-05-09T03:53:44.655Z,100808.75
2024-05-09T03:54:16.011Z,100808.78
2024-05-09T03:54:47.348Z,100820.28
2024-05-09T03:55:18.751Z,100809.50
2024-05-09T03:55:50.153Z,100809.50
2024-05-09T03:56:21.327Z,100813.47
2024-05-09T03:56:53.334Z,100814.66
2024-05-09T03:57:24.693Z,100809.44
2024-05-09T03:57:56.277Z,100816.53
2024-05-09T03:58:27.579Z,100812.72
2024-05-09T03:58:58.961Z,100817.78
2024-05-09T03:59:30.402Z,100813.78
2024-05-09T04:00:02.816Z,100811.94
2024-05-09T04:00:38.472Z,100810.91
2024-05-09T04:01:11.411Z,100820.50
2024-05-09T04:01:43.177Z,100813.94
2024-05-09T04:02:14.703Z,100813.09
2024-05-09T04:02:47.039Z,100811.13
2024-05-09T04:03:18.926Z,100811.56
2024-05-09T04:03:51.217Z,100807.69
2024-05-09T04:04:22.732Z,100810.63
2024-05-09T04:04:54.187Z,100810.19
2024-05-09T04:05:25.950Z,100817.34
2024-05-09T04:05:57.498Z,100816.50
2024-05-09T04:06:28.841Z,100811.53
2024-05-09T04:06:59.937Z,100814.22
2024-05-09T04:07:32.219Z,100818.63
2024-05-09T04:08:03.985Z,100818.00
2024-05-09T04:08:35.752Z,100817.38
2024-05-09T04:09:07.219Z,100817.19
2024-05-09T04:09:38.588Z,100816.34
2024-05-09T04:10:17.017Z,100818.84
2024-05-09T04:10:55.318Z,100816.06
2024-05-09T04:11:26.882Z,100816.66
2024-05-09T04:11:58.523Z,100822.56
2024-05-09T04:12:30.005Z,100817.78
2024-05-09T04:13:02.482Z,100820.91
2024-05-09T04:13:34.164Z,100820.72
2024-05-09T04:14:05.270Z,100820.53
2024-05-09T04:14:36.732Z,100821.81
2024-05-09T04:15:11.190Z,100820.00
2024-05-09T04:15:44.142Z,100822.84
2024-05-09T04:16:15.552Z,100827.03
2024-05-09T04:16:46.934Z,100829.75
2024-05-09T04:17:18.108Z,100822.91
2024-05-09T04:17:50.408Z,100828.19
2024-05-09T04:18:21.695Z,100824.06
2024-05-09T04:18:52.945Z,100828.66
2024-05-09T04:19:24.501Z,100826.38
2024-05-09T04:19:56.046Z,100829.50
2024-05-09T04:20:36.525Z,100831.09
2024-05-09T04:21:10.766Z,100835.09
2024-05-09T04:21:42.341Z,100826.94
2024-05-09T04:22:13.706Z,100834.06
2024-05-09T04:22:45.186Z,100833.50
2024-05-09T04:23:16.653Z,100838.25
2024-05-09T04:23:48.101Z,100839.44
2024-05-09T04:24:19.524Z,100835.09
2024-05-09T04:24:51.822Z,100835.31
2024-05-09T04:25:23.181Z,100834.75
2024-05-09T04:25:54.793Z,100843.63
2024-05-09T04:26:26.277Z,100844.94
2024-05-09T04:26:57.569Z,100837.88
2024-05-09T04:27:28.957Z,100837.41
2024-05-09T04:28:00.136Z,100837.88
2024-05-09T04:28:31.243Z,100841.88
2024-05-09T04:29:02.686Z,100836.13
2024-05-09T04:29:37.030Z,100841.59
2024-05-09T04:30:15.449Z,100837.56
2024-05-09T04:30:53.090Z,100833.63
2024-05-09T04:31:24.216Z,100830.75
2024-05-09T04:31:55.618Z,100838.25
2024-05-09T04:32:27.235Z,100835.81
2024-05-09T04:32:58.814Z,100837.09
2024-05-09T04:33:30.561Z,100832.50
2024-05-09T04:34:03.687Z,100840.59
2024-05-09T04:34:35.685Z,100839.75
2024-05-09T04:35:06.868Z,100840.91
2024-05-09T04:35:38.403Z,100831.16
2024-05-09T04:36:10.145Z,100836.38
2024-05-09T04:36:43.958Z,100840.13
2024-05-09T04:37:16.149Z,100843.53
2024-05-09T04:37:48.131Z,100829.97
2024-05-09T04:38:19.554Z,100839.63
2024-05-09T04:38:50.998Z,100842.66
2024-05-09T04:39:22.389Z,100837.03
2024-05-09T04:39:54.003Z,100838.84
2024-05-09T04:40:32.864Z,100841.56
2024-05-09T04:41:07.059Z,100843.59
2024-05-09T04:41:38.568Z,100834.56
2024-05-09T04:42:09.667Z,100846.16
2024-05-09T04:42:41.044Z,100840.03
2024-05-09T04:43:18.248Z,100840.41
2024-05-09T04:43:49.837Z,100850.94
2024-05-09T04:44:21.280Z,100848.91
2024-05-09T04:44:55.607Z,100852.00
2024-05-09T04:45:28.932Z,100847.44
2024-05-09T04:46:00.444Z,100839.84
2024-05-09T04:46:31.781Z,100847.34
2024-05-09T04:47:03.378Z,100845.47
2024-05-09T04:47:34.897Z,100851.53
2024-05-09T04:48:07.000Z,100848.31
2024-05-09T04:48:38.591Z,100848.13
2024-05-09T04:49:09.890Z,100845.25
2024-05-09T04:49:41.536Z,100850.19
2024-05-09T04:50:21.151Z,100809.88
2024-05-09T04:51:01.529Z,100850.75
2024-05-09T04:51:34.461Z,100850.31
2024-05-09T04:52:05.626Z,100855.97
2024-05-09T04:52:36.974Z,100846.53
2024-05-09T04:53:09.906Z,100850.91
2024-05-09T04:53:42.698Z,100854.69
2024-05-09T04:54:26.013Z,100852.97
2024-05-09T04:55:05.440Z,100857.19
2024-05-09T04:55:36.996Z,100856.50
2024-05-09T04:56:08.578Z,100855.06
2024-05-09T04:56:40.035Z,100860.13
2024-05-09T04:57:11.554Z,100859.38
2024-05-09T04:57:42.950Z,100862.38
2024-05-09T04:58:14.298Z,100858.72
2024-05-09T04:58:45.500Z,100839.50
2024-05-09T04:59:16.875Z,100861.03
2024-05-09T04:59:48.314Z,100864.16
2024-05-09T05:00:28.612Z,100863.00
2024-05-09T05:01:06.461Z,100859.56
2024-05-09T05:01:37.875Z,100856.16
2024-05-09T05:02:09.193Z,100856.47
2024-05-09T05:02:40.713Z,100857.91
2024-05-09T05:03:14.808Z,100865.72
2024-05-09T05:03:47.641Z,100865.94
2024-05-09T05:04:19.185Z,100862.97
2024-05-09T05:04:50.665Z,100859.91
2024-05-09T05:05:22.173Z,100863.56
2024-05-09T05:05:53.608Z,100861.13
2024-05-09T05:06:25.047Z,100862.06
2024-05-09T05:06:58.366Z,100859.59
2024-05-09T05:07:31.084Z,100868.97
2024-05-09T05:08:02.487Z,100868.56
2024-05-09T05:08:34.101Z,100867.50
2024-05-09T05:09:05.564Z,100862.50
2024-05-09T05:09:36.927Z,100864.78
2024-05-09T05:10:43.303Z,100867.69
2024-05-09T05:11:14.994Z,100872.03
2024-05-09T05:11:46.579Z,100864.25
2024-05-09T05:12:36.489Z,100862.97
2024-05-09T05:13:15.391Z,100863.41
2024-05-09T05:13:46.779Z,100870.75
2024-05-09T05:14:18.263Z,100869.41
2024-05-09T05:14:49.684Z,100866.06
2024-05-09T05:15:21.495Z,100864.34
2024-05-09T05:15:54.704Z,100865.69
2024-05-09T05:16:26.091Z,100863.72
2024-05-09T05:16:57.528Z,100867.75
2024-05-09T05:17:29.166Z,100868.44
2024-05-09T05:18:00.872Z,100869.56
2024-05-09T05:18:32.684Z,100864.19
2024-05-09T05:19:05.312Z,100869.03
2024-05-09T05:19:38.883Z,100877.47
2024-05-09T05:20:12.653Z,100869.03
2024-05-09T05:20:46.819Z,100871.31
2024-05-09T05:21:18.412Z,100871.31
2024-05-09T05:21:49.838Z,100871.00
2024-05-09T05:22:21.215Z,100876.63
2024-05-09T05:22:52.637Z,100872.44
2024-05-09T05:23:24.221Z,100863.41
2024-05-09T05:23:55.727Z,100874.50
2024-05-09T05:24:27.138Z,100881.09
2024-05-09T05:24:58.460Z,100873.66
2024-05-09T05:25:29.788Z,100872.59
2024-05-09T05:26:01.218Z,100869.47
2024-05-09T05:26:33.344Z,100872.22
2024-05-09T05:27:04.970Z,100869.88
2024-05-09T05:27:37.320Z,100875.50
2024-05-09T05:28:09.254Z,100877.09
2024-05-09T05:28:40.741Z,100873.97
2024-05-09T05:29:12.151Z,100877.09
2024-05-09T05:29:43.612Z,100873.13
2024-05-09T05:30:21.251Z,100872.28
2024-05-09T05:30:56.478Z,100875.78
2024-05-09T05:31:27.629Z,100871.69
2024-05-09T05:31:59.174Z,100879.28
2024-05-09T05:32:30.919Z,100870.78
2024-05-09T05:33:04.465Z,100876.09
2024-05-09T05:33:35.977Z,100882.47
2024-05-09T05:34:07.635Z,100870.78
2024-05-09T05:34:39.077Z,100875.56
2024-05-09T05:35:10.676Z,100876.53
2024-05-09T05:35:42.368Z,100882.16
2024-05-09T05:36:13.814Z,100879.94
2024-05-09T05:36:45.229Z,100876.78
2024-05-09T05:37:16.615Z,100878.91
2024-05-09T05:37:48.016Z,100878.50
2024-05-09T05:38:21.401Z,100879.84
2024-05-09T05:38:54.375Z,100879.84
2024-05-09T05:39:25.785Z,100876.19
2024-05-09T05:39:57.230Z,100878.69
2024-05-09T05:40:36.232Z,100883.47
2024-05-09T05:41:09.477Z,100877.53
2024-05-09T05:41:40.977Z,100885.91
2024-05-09T05:42:12.553Z,100880.75
2024-05-09T05:42:43.937Z,100883.47
2024-05-09T05:43:16.848Z,100887.63
2024-05-09T05:43:48.287Z,100884.16
2024-05-09T05:44:19.740Z,100878.53
2024-05-09T05:44:51.127Z,100881.88
2024-05-09T05:45:22.479Z,100883.31
2024-05-09T05:45:53.894Z,100882.84
2024-05-09T05:46:25.252Z,100884.88
2024-05-09T05:46:56.700Z,100884.16
2024-05-09T05:47:28.302Z,100876.91
2024-05-09T05:48:03.001Z,100884.28
2024-05-09T05:48:34.766Z,100880.84
2024-05-09T05:49:06.056Z,100880.03
2024-05-09T05:49:37.651Z,100887.84
2024-05-09T05:50:20.642Z,100887.34
2024-05-09T05:51:01.139Z,100888.25
2024-05-09T05:51:34.146Z,100881.19
2024-05-09T05:52:05.699Z,100884.53
2024-05-09T05:52:37.078Z,100887.56
2024-05-09T05:53:09.755Z,100892.97
2024-05-09T05:53:41.764Z,100888.69
2024-05-09T05:54:13.209Z,100890.88
2024-05-09T05:54:47.379Z,100885.16
2024-05-09T05:55:18.789Z,100888.00
2024-05-09T05:55:50.267Z,100893.31
2024-05-09T05:56:21.684Z,100884.63
2024-05-09T05:56:53.136Z,100883.16
2024-05-09T05:57:24.549Z,100884.53
2024-05-09T05:57:56.008Z,100887.47
2024-05-09T05:58:27.420Z,100892.47
2024-05-09T05:58:58.877Z,100892.06
2024-05-09T05:59:30.362Z,100884.69
2024-05-09T06:00:01.581Z,100884.28
2024-05-09T06:00:38.758Z,100891.03
2024-05-09T06:01:12.086Z,100891.88
2024-05-09T06:01:43.629Z,100893.50
2024-05-09T06:02:15.221Z,100889.69
2024-05-09T06:02:46.922Z,100893.75
2024-05-09T06:03:18.495Z,100894.22
2024-05-09T06:03:50.132Z,100899.78
2024-05-09T06:04:21.764Z,100895.59
2024-05-09T06:04:53.274Z,100893.38
2024-05-09T06:05:27.606Z,100892.09
2024-05-09T06:06:01.815Z,100898.00
2024-05-09T06:06:33.221Z,100898.78
2024-05-09T06:07:04.747Z,100891.53
2024-05-09T06:07:36.148Z,100894.94
2024-05-09T06:08:07.754Z,100898.50
2024-05-09T06:08:39.299Z,100894.56
2024-05-09T06:09:10.686Z,100898.53
2024-05-09T06:09:41.816Z,100893.56
2024-05-09T06:10:20.949Z,100900.16